createdAt,value
2019-04-27T00:00:32.872Z,10.81
2019-04-27T00:01:33.521Z,10.81
2019-04-27T00:02:33.341Z,10.81
2019-04-27T00:03:35.049Z,10.82
2019-04-27T00:04:32.941Z,10.84
2019-04-27T00:05:35.337Z,10.82
2019-04-27T00:06:31.623Z,10.79
2019-04-27T00:07:31.612Z,10.78
2019-04-27T00:08:35.649Z,10.81
2019-04-27T00:09:34.075Z,10.85
2019-04-27T00:10:33.413Z,10.85
2019-04-27T00:11:33.088Z,10.81
2019-04-27T00:12:33.126Z,10.84
2019-04-27T00:13:34.778Z,10.79
2019-04-27T00:14:32.920Z,10.81
2019-04-27T00:15:34.347Z,10.82
2019-04-27T00:16:31.522Z,10.81
2019-04-27T00:17:44.967Z,10.81
2019-04-27T00:18:33.850Z,10.84
2019-04-27T00:19:33.331Z,10.84
2019-04-27T00:20:33.155Z,10.78
2019-04-27T00:21:32.816Z,10.78
2019-04-27T00:22:33.326Z,10.73
2019-04-27T00:23:31.447Z,10.76
2019-04-27T00:24:31.436Z,10.78
2019-04-27T00:25:32.808Z,10.76
2019-04-27T00:26:31.416Z,10.78
2019-04-27T00:27:31.404Z,10.76
2019-04-27T00:28:33.088Z,10.73
2019-04-27T00:29:33.078Z,10.73
2019-04-27T00:30:31.468Z,10.74
2019-04-27T00:31:31.364Z,10.74
2019-04-27T00:32:33.111Z,10.76
2019-04-27T00:33:31.342Z,10.78
2019-04-27T00:34:31.331Z,10.78
2019-04-27T00:35:31.533Z,10.78
2019-04-27T00:36:32.942Z,10.74
2019-04-27T00:37:31.301Z,10.81
2019-04-27T00:38:31.291Z,10.82
2019-04-27T00:39:32.947Z,10.85
2019-04-27T00:40:31.306Z,10.84
2019-04-27T00:41:31.260Z,10.86
2019-04-27T00:42:31.250Z,10.82
2019-04-27T00:43:32.754Z,10.85
2019-04-27T00:44:31.228Z,10.81
2019-04-27T00:45:31.247Z,10.79
2019-04-27T00:46:32.981Z,10.81
2019-04-27T00:47:32.707Z,10.82
2019-04-27T00:48:31.187Z,10.82
2019-04-27T00:49:32.837Z,10.85
2019-04-27T00:50:31.191Z,10.86
2019-04-27T00:51:31.154Z,10.84
2019-04-27T00:52:32.604Z,10.85
2019-04-27T00:53:31.134Z,10.81
2019-04-27T00:54:31.130Z,10.79
2019-04-27T00:55:31.172Z,10.78
2019-04-27T00:56:31.883Z,10.76
2019-04-27T00:57:31.092Z,10.74
2019-04-27T00:58:31.083Z,10.79
2019-04-27T00:59:32.852Z,10.82
2019-04-27T01:00:31.060Z,10.82
2019-04-27T01:01:31.092Z,10.76
2019-04-27T01:02:31.041Z,10.78
2019-04-27T01:03:31.032Z,10.74
2019-04-27T01:04:31.021Z,10.73
2019-04-27T01:05:31.045Z,10.73
2019-04-27T01:06:31.029Z,10.78
2019-04-27T01:07:30.987Z,10.79
2019-04-27T01:08:30.978Z,10.79
2019-04-27T01:09:30.974Z,10.84
2019-04-27T01:10:30.964Z,10.84
2019-04-27T01:11:30.977Z,10.88
2019-04-27T01:12:30.942Z,10.88
2019-04-27T01:13:30.926Z,10.85
2019-04-27T01:14:31.016Z,10.85
2019-04-27T01:15:30.906Z,10.82
2019-04-27T01:16:31.864Z,10.85
2019-04-27T01:17:30.891Z,10.84
2019-04-27T01:18:30.875Z,10.84
2019-04-27T01:19:30.864Z,10.85
2019-04-27T01:20:30.862Z,10.84
2019-04-27T01:21:30.872Z,10.82
2019-04-27T01:22:30.832Z,10.84
2019-04-27T01:23:30.832Z,10.81
2019-04-27T01:24:30.855Z,10.82
2019-04-27T01:25:30.800Z,10.82
2019-04-27T01:26:30.821Z,10.79
2019-04-27T01:27:31.361Z,10.78
2019-04-27T01:28:30.791Z,10.78
2019-04-27T01:29:30.759Z,10.79
2019-04-27T01:30:30.759Z,10.78
2019-04-27T01:31:30.767Z,10.79
2019-04-27T01:32:33.850Z,10.79
2019-04-27T01:33:30.773Z,10.81
2019-04-27T01:34:30.707Z,10.78
2019-04-27T01:35:30.699Z,10.81
2019-04-27T01:36:30.719Z,10.81
2019-04-27T01:37:30.693Z,10.82
2019-04-27T01:38:30.682Z,10.82
2019-04-27T01:39:31.563Z,10.82
2019-04-27T01:40:30.653Z,10.79
2019-04-27T01:41:30.663Z,10.78
2019-04-27T01:42:30.623Z,10.79
2019-04-27T01:43:30.658Z,10.81
2019-04-27T01:44:30.639Z,10.79
2019-04-27T01:45:31.452Z,10.82
2019-04-27T01:46:30.609Z,10.82
2019-04-27T01:47:30.570Z,10.81
2019-04-27T01:48:30.714Z,10.78
2019-04-27T01:49:30.558Z,10.78
2019-04-27T01:50:30.539Z,10.79
2019-04-27T01:51:30.593Z,10.76
2019-04-27T01:52:30.891Z,10.73
2019-04-27T01:53:30.591Z,10.76
2019-04-27T01:54:30.496Z,10.76
2019-04-27T01:55:30.498Z,10.70
2019-04-27T01:56:30.505Z,10.73
2019-04-27T01:57:30.494Z,10.74
2019-04-27T01:58:30.464Z,10.78
2019-04-27T01:59:30.444Z,10.74
2019-04-27T02:00:30.434Z,10.71
2019-04-27T02:01:30.453Z,10.71
2019-04-27T02:02:30.423Z,10.73
2019-04-27T02:03:33.272Z,10.70
2019-04-27T02:04:30.421Z,10.66
2019-04-27T02:05:30.389Z,10.66
2019-04-27T02:06:30.377Z,10.64
2019-04-27T02:07:30.390Z,10.64
2019-04-27T02:08:30.350Z,10.64
2019-04-27T02:09:30.349Z,10.61
2019-04-27T02:10:30.337Z,10.63
2019-04-27T02:11:30.326Z,10.64
2019-04-27T02:12:31.488Z,10.68
2019-04-27T02:13:30.298Z,10.70
2019-04-27T02:14:30.319Z,10.70
2019-04-27T02:15:30.287Z,10.73
2019-04-27T02:16:30.674Z,10.76
2019-04-27T02:17:30.286Z,10.74
2019-04-27T02:18:37.612Z,10.76
2019-04-27T02:19:31.244Z,10.76
2019-04-27T02:20:30.257Z,10.73
2019-04-27T02:21:30.225Z,10.76
2019-04-27T02:22:30.237Z,10.79
2019-04-27T02:23:30.203Z,10.79
2019-04-27T02:24:31.153Z,10.81
2019-04-27T02:25:30.181Z,10.78
2019-04-27T02:26:30.173Z,10.78
2019-04-27T02:27:30.181Z,10.76
2019-04-27T02:28:30.147Z,10.74
2019-04-27T02:29:30.156Z,10.76
2019-04-27T02:30:30.682Z,10.74
2019-04-27T02:31:30.120Z,10.76
2019-04-27T02:32:31.088Z,10.74
2019-04-27T02:33:30.349Z,10.76
2019-04-27T02:34:32.148Z,10.76
2019-04-27T02:35:30.157Z,10.76
2019-04-27T02:36:30.601Z,10.78
2019-04-27T02:37:30.600Z,10.74
2019-04-27T02:38:30.827Z,10.78
2019-04-27T02:39:30.054Z,10.79
2019-04-27T02:40:30.542Z,10.79
2019-04-27T02:41:30.050Z,10.79
2019-04-27T02:42:30.032Z,10.78
2019-04-27T02:43:30.063Z,10.78
2019-04-27T02:44:30.255Z,10.81
2019-04-27T02:45:30.405Z,10.78
2019-04-27T02:46:31.463Z,10.74
2019-04-27T02:47:30.023Z,10.76
2019-04-27T02:48:30.028Z,10.73
2019-04-27T02:49:30.509Z,10.78
2019-04-27T02:50:29.932Z,10.79
2019-04-27T02:51:30.120Z,10.76
2019-04-27T02:52:31.523Z,10.79
2019-04-27T02:53:29.889Z,10.74
2019-04-27T02:54:30.041Z,10.74
2019-04-27T02:55:30.617Z,10.82
2019-04-27T02:56:30.894Z,10.81
2019-04-27T02:57:30.382Z,10.82
2019-04-27T02:58:31.672Z,10.81
2019-04-27T02:59:30.462Z,10.84
2019-04-27T03:00:31.909Z,10.84
2019-04-27T03:01:30.728Z,10.82
2019-04-27T03:02:30.280Z,10.81
2019-04-27T03:03:30.171Z,10.79
2019-04-27T03:04:30.377Z,10.82
2019-04-27T03:05:29.963Z,10.81
2019-04-27T03:06:30.125Z,10.84
2019-04-27T03:07:30.341Z,10.82
2019-04-27T03:08:29.763Z,10.84
2019-04-27T03:09:30.560Z,10.84
2019-04-27T03:10:29.855Z,10.85
2019-04-27T03:11:30.676Z,10.86
2019-04-27T03:12:29.720Z,10.88
2019-04-27T03:13:30.439Z,10.88
2019-04-27T03:14:36.243Z,10.86
2019-04-27T03:15:30.730Z,10.86
2019-04-27T03:16:29.806Z,10.89
2019-04-27T03:17:31.124Z,10.91
2019-04-27T03:18:32.802Z,10.88
2019-04-27T03:19:29.981Z,10.88
2019-04-27T03:20:30.207Z,10.86
2019-04-27T03:21:29.823Z,10.92
2019-04-27T03:22:29.789Z,10.89
2019-04-27T03:23:30.393Z,10.91
2019-04-27T03:24:29.645Z,10.89
2019-04-27T03:25:32.597Z,10.92
2019-04-27T03:26:31.066Z,10.94
2019-04-27T03:27:30.341Z,10.96
2019-04-27T03:28:29.942Z,10.97
2019-04-27T03:29:30.598Z,10.97
2019-04-27T03:30:31.799Z,10.94
2019-04-27T03:31:32.769Z,10.96
2019-04-27T03:32:31.214Z,10.94
2019-04-27T03:33:32.356Z,10.94
2019-04-27T03:34:32.096Z,10.92
2019-04-27T03:35:35.354Z,10.91
2019-04-27T03:36:31.599Z,10.91
2019-04-27T03:37:30.307Z,10.89
2019-04-27T03:38:30.274Z,10.89
2019-04-27T03:39:30.373Z,10.85
2019-04-27T03:40:30.767Z,10.84
2019-04-27T03:41:29.385Z,10.82
2019-04-27T03:42:29.418Z,10.81
2019-04-27T03:43:30.265Z,10.79
2019-04-27T03:44:32.053Z,10.79
2019-04-27T03:45:30.057Z,10.81
2019-04-27T03:46:30.286Z,10.79
2019-04-27T03:47:30.571Z,10.84
2019-04-27T03:48:29.647Z,10.86
2019-04-27T03:49:37.511Z,10.84
2019-04-27T03:50:30.420Z,10.85
2019-04-27T03:51:29.959Z,10.84
2019-04-27T03:52:30.008Z,10.82
2019-04-27T03:53:29.785Z,10.85
2019-04-27T03:54:29.801Z,10.86
2019-04-27T03:55:30.523Z,10.86
2019-04-27T03:56:30.401Z,10.88
2019-04-27T03:57:29.715Z,10.85
2019-04-27T03:58:30.472Z,10.88
2019-04-27T03:59:29.465Z,10.88
2019-04-27T04:00:29.969Z,10.86
2019-04-27T04:01:30.201Z,10.91
2019-04-27T04:02:30.417Z,10.88
2019-04-27T04:03:29.798Z,10.88
2019-04-27T04:04:29.679Z,10.86
2019-04-27T04:05:30.069Z,10.86
2019-04-27T04:06:29.700Z,10.85
2019-04-27T04:07:30.045Z,10.84
2019-04-27T04:08:30.748Z,10.86
2019-04-27T04:09:29.661Z,10.86
2019-04-27T04:10:29.768Z,10.86
2019-04-27T04:11:30.380Z,10.86
2019-04-27T04:12:30.300Z,10.84
2019-04-27T04:13:29.670Z,10.85
2019-04-27T04:14:30.214Z,10.85
2019-04-27T04:15:29.816Z,10.88
2019-04-27T04:16:29.703Z,10.86
2019-04-27T04:17:30.753Z,10.88
2019-04-27T04:18:29.356Z,10.92
2019-04-27T04:19:31.563Z,10.92
2019-04-27T04:20:30.521Z,10.96
2019-04-27T04:21:29.885Z,10.99
2019-04-27T04:22:30.211Z,10.97
2019-04-27T04:23:30.062Z,11.00
2019-04-27T04:24:31.678Z,10.97
2019-04-27T04:25:32.867Z,10.96
2019-04-27T04:26:32.772Z,10.97
2019-04-27T04:27:29.885Z,10.96
2019-04-27T04:28:29.636Z,10.91
2019-04-27T04:29:30.671Z,10.86
2019-04-27T04:30:30.248Z,10.88
2019-04-27T04:31:32.658Z,10.91
2019-04-27T04:32:29.780Z,10.96
2019-04-27T04:33:30.354Z,10.88
2019-04-27T04:34:29.985Z,10.92
2019-04-27T04:35:32.579Z,10.94
2019-04-27T04:36:30.122Z,10.97
2019-04-27T04:37:29.783Z,10.94
2019-04-27T04:38:30.473Z,10.94
2019-04-27T04:39:29.667Z,10.96
2019-04-27T04:40:30.713Z,10.96
2019-04-27T04:41:30.354Z,10.99
2019-04-27T04:42:30.080Z,11.02
2019-04-27T04:43:29.417Z,11.03
2019-04-27T04:44:30.250Z,11.00
2019-04-27T04:45:30.523Z,11.02
2019-04-27T04:46:29.874Z,11.07
2019-04-27T04:47:30.594Z,11.09
2019-04-27T04:48:30.196Z,11.09
2019-04-27T04:49:29.648Z,11.15
2019-04-27T04:50:30.387Z,11.14
2019-04-27T04:51:30.324Z,11.17
2019-04-27T04:52:29.442Z,11.15
2019-04-27T04:53:29.298Z,11.15
2019-04-27T04:54:29.958Z,11.14
2019-04-27T04:55:30.670Z,11.15
2019-04-27T04:56:29.177Z,11.18
2019-04-27T04:57:29.923Z,11.15
2019-04-27T04:58:29.462Z,11.14
2019-04-27T04:59:29.211Z,11.14
2019-04-27T05:00:29.976Z,11.17
2019-04-27T05:01:29.877Z,11.21
2019-04-27T05:02:30.247Z,11.21
2019-04-27T05:03:28.735Z,11.25
2019-04-27T05:04:29.204Z,11.27
2019-04-27T05:05:29.298Z,11.29
2019-04-27T05:06:29.269Z,11.32
2019-04-27T05:07:29.715Z,11.32
2019-04-27T05:08:29.248Z,11.25
2019-04-27T05:09:29.609Z,11.27
2019-04-27T05:10:28.820Z,11.29
2019-04-27T05:11:29.736Z,11.36
2019-04-27T05:12:28.821Z,11.35
2019-04-27T05:13:29.314Z,11.32
2019-04-27T05:14:28.867Z,11.29
2019-04-27T05:15:29.362Z,11.29
2019-04-27T05:16:28.610Z,11.33
2019-04-27T05:17:29.667Z,11.37
2019-04-27T05:18:29.280Z,11.36
2019-04-27T05:19:29.263Z,11.36
2019-04-27T05:20:29.457Z,11.39
2019-04-27T05:21:29.448Z,11.44
2019-04-27T05:22:29.622Z,11.40
2019-04-27T05:23:28.771Z,11.44
2019-04-27T05:24:29.239Z,11.47
2019-04-27T05:25:28.761Z,11.49
2019-04-27T05:26:29.511Z,11.47
2019-04-27T05:27:29.026Z,11.49
2019-04-27T05:28:29.894Z,11.47
2019-04-27T05:29:29.322Z,11.47
2019-04-27T05:30:28.688Z,11.43
2019-04-27T05:31:29.375Z,11.43
2019-04-27T05:32:29.166Z,11.42
2019-04-27T05:33:28.629Z,11.40
2019-04-27T05:34:29.416Z,11.39
2019-04-27T05:35:29.778Z,11.37
2019-04-27T05:36:29.663Z,11.37
2019-04-27T05:37:31.505Z,11.35
2019-04-27T05:38:29.469Z,11.36
2019-04-27T05:39:29.967Z,11.37
2019-04-27T05:40:30.923Z,11.40
2019-04-27T05:41:31.190Z,11.40
2019-04-27T05:42:29.920Z,11.35
2019-04-27T05:43:30.181Z,11.37
2019-04-27T05:44:29.102Z,11.42
2019-04-27T05:45:29.142Z,11.43
2019-04-27T05:46:29.742Z,11.47
2019-04-27T05:47:29.325Z,11.51
2019-04-27T05:48:30.677Z,11.54
2019-04-27T05:49:29.507Z,11.39
2019-04-27T05:50:36.145Z,11.36
2019-04-27T05:51:36.619Z,11.42
2019-04-27T05:52:29.626Z,11.51
2019-04-27T05:53:29.107Z,11.55
2019-04-27T05:54:29.414Z,11.55
2019-04-27T05:55:29.203Z,11.61
2019-04-27T05:56:28.963Z,11.57
2019-04-27T05:57:31.238Z,11.61
2019-04-27T05:58:29.006Z,11.67
2019-04-27T05:59:29.663Z,11.57
2019-04-27T06:00:29.324Z,11.54
2019-04-27T06:01:29.563Z,11.49
2019-04-27T06:02:29.998Z,11.57
2019-04-27T06:03:29.593Z,11.55
2019-04-27T06:04:29.080Z,11.70
2019-04-27T06:05:29.258Z,11.76
2019-04-27T06:06:29.547Z,11.90
2019-04-27T06:07:29.646Z,11.94
2019-04-27T06:08:29.530Z,12.13
2019-04-27T06:09:28.992Z,12.23
2019-04-27T06:10:29.554Z,12.32
2019-04-27T06:11:28.648Z,12.16
2019-04-27T06:12:29.711Z,12.24
2019-04-27T06:13:30.738Z,12.14
2019-04-27T06:14:29.189Z,12.01
2019-04-27T06:15:28.408Z,11.95
2019-04-27T06:16:29.397Z,11.98
2019-04-27T06:17:29.652Z,12.02
2019-04-27T06:18:29.191Z,12.17
2019-04-27T06:19:29.153Z,12.39
2019-04-27T06:20:28.582Z,12.52
2019-04-27T06:21:29.428Z,12.54
2019-04-27T06:22:29.264Z,12.52
2019-04-27T06:23:28.997Z,12.49
2019-04-27T06:24:29.602Z,12.64
2019-04-27T06:25:30.367Z,12.52
2019-04-27T06:26:29.899Z,12.53
2019-04-27T06:27:30.705Z,12.57
2019-04-27T06:28:29.007Z,12.70
2019-04-27T06:29:29.233Z,12.71
2019-04-27T06:30:29.252Z,12.75
2019-04-27T06:31:29.688Z,12.82
2019-04-27T06:32:29.369Z,12.82
2019-04-27T06:33:33.874Z,12.79
2019-04-27T06:34:30.882Z,12.79
2019-04-27T06:35:28.803Z,12.86
2019-04-27T06:36:28.755Z,12.95
2019-04-27T06:37:29.475Z,12.89
2019-04-27T06:38:29.222Z,12.89
2019-04-27T06:39:27.521Z,12.83
2019-04-27T06:40:29.075Z,12.79
2019-04-27T06:41:29.260Z,12.90
2019-04-27T06:42:29.418Z,13.00
2019-04-27T06:43:29.266Z,13.08
2019-04-27T06:44:29.364Z,13.11
2019-04-27T06:45:28.554Z,13.05
2019-04-27T06:46:28.807Z,13.03
2019-04-27T06:47:29.317Z,13.07
2019-04-27T06:48:29.506Z,13.10
2019-04-27T06:49:29.511Z,13.14
2019-04-27T06:50:27.406Z,13.15
2019-04-27T06:51:28.675Z,13.52
2019-04-27T06:52:29.184Z,13.67
2019-04-27T06:53:29.058Z,13.96
2019-04-27T06:54:28.901Z,14.10
2019-04-27T06:55:28.991Z,14.21
2019-04-27T06:56:28.722Z,14.21
2019-04-27T06:57:29.119Z,14.24
2019-04-27T06:58:29.086Z,14.39
2019-04-27T06:59:28.855Z,14.55
2019-04-27T07:00:28.930Z,14.55
2019-04-27T07:01:27.300Z,14.61
2019-04-27T07:02:29.027Z,14.75
2019-04-27T07:03:28.962Z,14.54
2019-04-27T07:04:27.259Z,14.64
2019-04-27T07:05:28.894Z,14.72
2019-04-27T07:06:28.571Z,14.77
2019-04-27T07:07:29.279Z,14.84
2019-04-27T07:08:28.655Z,14.88
2019-04-27T07:09:29.519Z,14.92
2019-04-27T07:10:28.597Z,14.96
2019-04-27T07:11:27.186Z,14.94
2019-04-27T07:12:28.728Z,14.89
2019-04-27T07:13:29.006Z,14.77
2019-04-27T07:14:27.160Z,14.78
2019-04-27T07:15:28.664Z,14.84
2019-04-27T07:16:29.396Z,14.95
2019-04-27T07:17:28.992Z,15.01
2019-04-27T07:18:28.584Z,15.03
2019-04-27T07:19:28.594Z,15.07
2019-04-27T07:20:28.737Z,15.06
2019-04-27T07:21:28.614Z,14.89
2019-04-27T07:22:27.069Z,14.77
2019-04-27T07:23:29.110Z,14.89
2019-04-27T07:24:27.053Z,14.72
2019-04-27T07:25:28.812Z,14.62
2019-04-27T07:26:27.039Z,14.64
2019-04-27T07:27:29.066Z,14.54
2019-04-27T07:28:28.563Z,14.69
2019-04-27T07:29:26.997Z,14.69
2019-04-27T07:30:28.726Z,14.88
2019-04-27T07:31:26.976Z,14.78
2019-04-27T07:32:26.964Z,14.96
2019-04-27T07:33:26.984Z,15.07
2019-04-27T07:34:28.653Z,15.19
2019-04-27T07:35:29.478Z,15.25
2019-04-27T07:36:28.835Z,15.29
2019-04-27T07:37:29.263Z,15.31
2019-04-27T07:38:26.943Z,15.27
2019-04-27T07:39:26.915Z,15.16
2019-04-27T07:40:30.164Z,15.20
2019-04-27T07:41:26.877Z,15.23
2019-04-27T07:42:29.589Z,15.17
2019-04-27T07:43:29.300Z,14.99
2019-04-27T07:44:29.273Z,14.91
2019-04-27T07:45:26.828Z,14.86
2019-04-27T07:46:29.836Z,14.78
2019-04-27T07:47:26.830Z,14.75
2019-04-27T07:48:28.464Z,14.68
2019-04-27T07:49:29.080Z,14.70
2019-04-27T07:50:26.811Z,14.61
2019-04-27T07:51:33.537Z,14.64
2019-04-27T07:52:28.692Z,14.69
2019-04-27T07:53:29.072Z,14.70
2019-04-27T07:54:28.432Z,14.62
2019-04-27T07:55:26.723Z,14.58
2019-04-27T07:56:26.704Z,14.68
2019-04-27T07:57:26.694Z,14.80
2019-04-27T07:58:26.690Z,14.92
2019-04-27T07:59:26.722Z,14.86
2019-04-27T08:00:26.662Z,14.98
2019-04-27T08:01:29.250Z,15.09
2019-04-27T08:02:26.643Z,15.16
2019-04-27T08:03:26.640Z,15.19
2019-04-27T08:04:26.651Z,15.19
2019-04-27T08:05:26.611Z,15.25
2019-04-27T08:06:28.800Z,15.36
2019-04-27T08:07:26.590Z,15.29
2019-04-27T08:08:28.492Z,15.29
2019-04-27T08:09:26.598Z,15.34
2019-04-27T08:10:26.557Z,15.31
2019-04-27T08:11:26.547Z,15.41
2019-04-27T08:12:26.536Z,15.35
2019-04-27T08:13:26.536Z,15.29
2019-04-27T08:14:26.553Z,15.38
2019-04-27T08:15:26.512Z,15.54
2019-04-27T08:16:26.503Z,15.68
2019-04-27T08:17:26.485Z,15.78
2019-04-27T08:18:26.474Z,15.69
2019-04-27T08:19:26.490Z,15.65
2019-04-27T08:20:26.457Z,15.62
2019-04-27T08:21:28.749Z,15.68
2019-04-27T08:22:26.433Z,15.80
2019-04-27T08:23:26.421Z,15.90
2019-04-27T08:24:26.439Z,16.00
2019-04-27T08:25:26.401Z,16.08
2019-04-27T08:26:26.401Z,16.02
2019-04-27T08:27:27.311Z,15.96
2019-04-27T08:28:26.380Z,16.04
2019-04-27T08:29:26.386Z,16.04
2019-04-27T08:30:29.455Z,16.08
2019-04-27T08:31:26.339Z,16.15
2019-04-27T08:32:26.327Z,16.15
2019-04-27T08:33:26.317Z,16.20
2019-04-27T08:34:26.337Z,15.92
2019-04-27T08:35:26.360Z,16.07
2019-04-27T08:36:26.285Z,16.04
2019-04-27T08:37:26.276Z,16.09
2019-04-27T08:38:26.265Z,16.14
2019-04-27T08:39:26.769Z,16.20
2019-04-27T08:40:26.423Z,16.20
2019-04-27T08:41:26.232Z,16.21
2019-04-27T08:42:26.222Z,16.28
2019-04-27T08:43:26.212Z,16.33
2019-04-27T08:44:26.202Z,16.46
2019-04-27T08:45:26.212Z,16.49
2019-04-27T08:46:28.446Z,16.41
2019-04-27T08:47:26.169Z,16.42
2019-04-27T08:48:36.042Z,16.35
2019-04-27T08:49:27.148Z,16.31
2019-04-27T08:50:26.168Z,16.38
2019-04-27T08:51:26.918Z,16.41
2019-04-27T08:52:26.119Z,16.57
2019-04-27T08:53:26.128Z,16.61
2019-04-27T08:54:26.892Z,16.64
2019-04-27T08:55:26.127Z,16.70
2019-04-27T08:56:26.076Z,16.70
2019-04-27T08:57:26.066Z,16.78
2019-04-27T08:58:26.065Z,16.88
2019-04-27T08:59:26.774Z,16.86
2019-04-27T09:00:26.062Z,16.57
2019-04-27T09:01:26.063Z,16.27
2019-04-27T09:02:38.847Z,16.41
2019-04-27T09:03:27.003Z,16.48
2019-04-27T09:04:25.992Z,16.46
2019-04-27T09:05:26.015Z,16.52
2019-04-27T09:06:25.972Z,16.39
2019-04-27T09:07:25.961Z,16.48
2019-04-27T09:08:25.952Z,16.53
2019-04-27T09:09:25.941Z,16.63
2019-04-27T09:10:26.770Z,16.39
2019-04-27T09:11:25.922Z,16.01
2019-04-27T09:12:25.907Z,15.97
2019-04-27T09:13:25.900Z,15.94
2019-04-27T09:14:25.887Z,15.97
2019-04-27T09:15:25.903Z,16.09
2019-04-27T09:16:25.866Z,16.28
2019-04-27T09:17:25.858Z,16.17
2019-04-27T09:18:25.846Z,16.00
2019-04-27T09:19:25.835Z,16.15
2019-04-27T09:20:28.592Z,16.38
2019-04-27T09:21:25.816Z,16.23
2019-04-27T09:22:25.804Z,16.00
2019-04-27T09:23:28.623Z,15.89
2019-04-27T09:24:25.896Z,15.97
2019-04-27T09:25:25.774Z,16.01
2019-04-27T09:26:25.794Z,16.05
2019-04-27T09:27:25.752Z,16.02
2019-04-27T09:28:25.741Z,16.08
2019-04-27T09:29:25.733Z,16.33
2019-04-27T09:30:26.912Z,16.50
2019-04-27T09:31:26.068Z,16.76
2019-04-27T09:32:25.699Z,16.79
2019-04-27T09:33:25.693Z,16.53
2019-04-27T09:34:26.077Z,16.45
2019-04-27T09:35:26.442Z,16.58
2019-04-27T09:36:26.082Z,16.71
2019-04-27T09:37:27.306Z,16.83
2019-04-27T09:38:26.431Z,16.67
2019-04-27T09:39:26.478Z,16.67
2019-04-27T09:40:26.780Z,16.45
2019-04-27T09:41:26.169Z,16.33
2019-04-27T09:42:26.826Z,16.35
2019-04-27T09:43:26.440Z,16.58
2019-04-27T09:44:26.667Z,16.76
2019-04-27T09:45:27.056Z,16.79
2019-04-27T09:46:25.986Z,16.68
2019-04-27T09:47:26.684Z,16.61
2019-04-27T09:48:26.081Z,16.60
2019-04-27T09:49:26.418Z,16.78
2019-04-27T09:50:27.939Z,16.82
2019-04-27T09:51:25.676Z,16.66
2019-04-27T09:52:26.965Z,16.57
2019-04-27T09:53:27.040Z,16.50
2019-04-27T09:54:27.109Z,16.46
2019-04-27T09:55:26.365Z,16.56
2019-04-27T09:56:26.239Z,16.60
2019-04-27T09:57:25.948Z,16.88
2019-04-27T09:58:25.796Z,17.03
2019-04-27T09:59:26.575Z,17.12
2019-04-27T10:00:25.411Z,17.23
2019-04-27T10:01:26.507Z,16.97
2019-04-27T10:02:26.850Z,16.86
2019-04-27T10:03:26.663Z,16.98
2019-04-27T10:04:26.362Z,16.89
2019-04-27T10:05:26.368Z,16.93
2019-04-27T10:06:29.766Z,16.73
2019-04-27T10:07:26.852Z,16.73
2019-04-27T10:08:26.148Z,16.58
2019-04-27T10:09:26.335Z,16.73
2019-04-27T10:10:26.725Z,16.60
2019-04-27T10:11:26.488Z,16.70
2019-04-27T10:12:26.213Z,16.60
2019-04-27T10:13:25.650Z,16.56
2019-04-27T10:14:26.514Z,16.63
2019-04-27T10:15:26.686Z,16.66
2019-04-27T10:16:25.705Z,16.67
2019-04-27T10:17:26.071Z,16.50
2019-04-27T10:18:26.589Z,16.48
2019-04-27T10:19:31.133Z,16.48
2019-04-27T10:20:26.280Z,16.53
2019-04-27T10:21:26.422Z,16.66
2019-04-27T10:22:39.864Z,16.67
2019-04-27T10:23:26.168Z,16.68
2019-04-27T10:24:25.743Z,16.78
2019-04-27T10:25:25.191Z,16.88
2019-04-27T10:26:26.017Z,16.82
2019-04-27T10:27:25.945Z,16.81
2019-04-27T10:28:25.117Z,16.83
2019-04-27T10:29:26.716Z,16.98
2019-04-27T10:30:25.772Z,16.97
2019-04-27T10:31:25.136Z,17.16
2019-04-27T10:32:26.098Z,17.43
2019-04-27T10:33:25.645Z,17.70
2019-04-27T10:34:25.962Z,17.99
2019-04-27T10:35:26.052Z,18.26
2019-04-27T10:36:26.829Z,18.60
2019-04-27T10:37:25.042Z,18.91
2019-04-27T10:38:25.896Z,19.00
2019-04-27T10:39:25.721Z,19.29
2019-04-27T10:40:26.379Z,19.44
2019-04-27T10:41:25.941Z,19.00
2019-04-27T10:42:25.318Z,19.39
2019-04-27T10:43:25.816Z,19.55
2019-04-27T10:44:26.571Z,19.22
2019-04-27T10:45:24.936Z,19.56
2019-04-27T10:46:25.811Z,19.86
2019-04-27T10:47:26.026Z,19.59
2019-04-27T10:48:26.502Z,19.54
2019-04-27T10:49:24.895Z,19.55
2019-04-27T10:50:26.529Z,19.33
2019-04-27T10:51:26.126Z,18.85
2019-04-27T10:52:24.894Z,18.57
2019-04-27T10:53:26.758Z,18.48
2019-04-27T10:54:24.872Z,18.32
2019-04-27T10:55:26.184Z,18.15
2019-04-27T10:56:25.515Z,18.18
2019-04-27T10:57:25.791Z,18.14
2019-04-27T10:58:25.430Z,17.92
2019-04-27T10:59:24.803Z,17.78
2019-04-27T11:00:25.664Z,17.55
2019-04-27T11:01:25.769Z,17.48
2019-04-27T11:02:24.823Z,17.43
2019-04-27T11:03:25.587Z,17.54
2019-04-27T11:04:26.047Z,17.46
2019-04-27T11:05:25.683Z,17.36
2019-04-27T11:06:26.094Z,17.40
2019-04-27T11:07:25.981Z,17.25
2019-04-27T11:08:24.699Z,17.43
2019-04-27T11:09:25.725Z,17.62
2019-04-27T11:10:25.989Z,17.84
2019-04-27T11:11:25.894Z,17.84
2019-04-27T11:12:24.678Z,17.74
2019-04-27T11:13:25.748Z,17.55
2019-04-27T11:14:26.174Z,17.52
2019-04-27T11:15:26.388Z,17.34
2019-04-27T11:16:24.627Z,17.59
2019-04-27T11:17:26.587Z,17.70
2019-04-27T11:18:25.795Z,17.58
2019-04-27T11:19:26.651Z,17.46
2019-04-27T11:20:27.572Z,17.56
2019-04-27T11:21:26.144Z,17.70
2019-04-27T11:22:26.061Z,17.75
2019-04-27T11:23:26.074Z,17.75
2019-04-27T11:24:24.523Z,17.77
2019-04-27T11:25:26.242Z,17.74
2019-04-27T11:26:26.215Z,17.90
2019-04-27T11:27:24.522Z,17.97
2019-04-27T11:28:25.830Z,17.87
2019-04-27T11:29:25.693Z,17.95
2019-04-27T11:30:24.550Z,17.97
2019-04-27T11:31:26.067Z,17.86
2019-04-27T11:32:24.466Z,17.95
2019-04-27T11:33:26.239Z,18.21
2019-04-27T11:34:24.487Z,18.41
2019-04-27T11:35:25.760Z,18.41
2019-04-27T11:36:25.579Z,18.27
2019-04-27T11:37:24.572Z,18.08
2019-04-27T11:38:24.381Z,18.25
2019-04-27T11:39:25.948Z,18.32
2019-04-27T11:40:24.386Z,18.26
2019-04-27T11:41:26.121Z,18.20
2019-04-27T11:42:24.337Z,18.23
2019-04-27T11:43:26.073Z,17.87
2019-04-27T11:44:25.760Z,17.58
2019-04-27T11:45:24.440Z,17.49
2019-04-27T11:46:24.478Z,17.52
2019-04-27T11:47:24.283Z,17.59
2019-04-27T11:48:26.682Z,17.54
2019-04-27T11:49:25.766Z,17.49
2019-04-27T11:50:25.621Z,17.37
2019-04-27T11:51:24.250Z,17.21
2019-04-27T11:52:24.231Z,17.26
2019-04-27T11:53:26.031Z,17.34
2019-04-27T11:54:25.525Z,17.25
2019-04-27T11:55:24.198Z,17.22
2019-04-27T11:56:24.206Z,17.41
2019-04-27T11:57:24.176Z,17.36
2019-04-27T11:58:24.196Z,17.37
2019-04-27T11:59:24.157Z,17.46
2019-04-27T12:00:24.718Z,17.43
2019-04-27T12:01:24.138Z,17.19
2019-04-27T12:02:25.761Z,17.16
2019-04-27T12:03:25.625Z,17.12
2019-04-27T12:04:24.097Z,16.97
2019-04-27T12:05:25.969Z,17.04
2019-04-27T12:06:25.745Z,17.01
2019-04-27T12:07:24.073Z,16.96
2019-04-27T12:08:24.084Z,17.08
2019-04-27T12:09:24.045Z,17.14
2019-04-27T12:10:24.034Z,17.15
2019-04-27T12:11:24.023Z,17.01
2019-04-27T12:12:24.022Z,16.89
2019-04-27T12:13:25.841Z,16.98
2019-04-27T12:14:24.001Z,16.97
2019-04-27T12:15:23.991Z,16.89
2019-04-27T12:16:24.021Z,16.89
2019-04-27T12:17:25.985Z,16.93
2019-04-27T12:18:24.720Z,16.93
2019-04-27T12:19:26.687Z,16.78
2019-04-27T12:20:25.635Z,16.71
2019-04-27T12:21:23.919Z,16.60
2019-04-27T12:22:23.909Z,16.68
2019-04-27T12:23:35.085Z,16.81
2019-04-27T12:24:26.560Z,16.66
2019-04-27T12:25:24.717Z,16.64
2019-04-27T12:26:25.939Z,16.61
2019-04-27T12:27:25.623Z,16.71
2019-04-27T12:28:25.602Z,16.85
2019-04-27T12:29:23.835Z,16.86
2019-04-27T12:30:23.831Z,16.88
2019-04-27T12:31:25.689Z,17.01
2019-04-27T12:32:25.623Z,17.19
2019-04-27T12:33:25.576Z,17.30
2019-04-27T12:34:25.596Z,17.28
2019-04-27T12:35:25.560Z,17.46
2019-04-27T12:36:23.762Z,17.41
2019-04-27T12:37:24.344Z,17.51
2019-04-27T12:38:23.781Z,17.43
2019-04-27T12:39:23.731Z,17.34
2019-04-27T12:40:23.720Z,17.38
2019-04-27T12:41:23.723Z,17.48
2019-04-27T12:42:23.707Z,17.46
2019-04-27T12:43:24.349Z,17.44
2019-04-27T12:44:26.049Z,17.48
2019-04-27T12:45:23.681Z,17.62
2019-04-27T12:46:24.767Z,17.56
2019-04-27T12:47:23.679Z,17.49
2019-04-27T12:48:23.657Z,17.38
2019-04-27T12:49:23.655Z,17.55
2019-04-27T12:50:25.971Z,17.58
2019-04-27T12:51:23.615Z,17.56
2019-04-27T12:52:23.604Z,17.52